Archdale, NC (27263)

10:54 PM EST on November 22, 2014 (GMT -0500)
KNCARCHD2 | Change Station
CLOSE
Current Station
Personal Weather Station
Location: Archdale, NC
Elevation: 801 ft
Nearby Weather Stations

Elev 801 ft 35.92 °N, 79.93 °W | Updated 4 minutes ago

Clear
Clear
32.6 °F
Feels Like 33 °F
N
0.0
Wind Variable Wind from WSW
Gusts 0.0 mph

Today
High -- | Low -- °F
--% Chance of Precip.
Yesterday
High -- | Low -- °F
Precip. -- in
7:03 AM 5:08 PM
New Moon, 0% visible
Pressure 30.35 in
Visibility 6.0 miles
Clouds Few 7000 ft
Windchill 33 °F
Dew Point 27 °F
Humidity 80%
Rainfall 0.00 in
Snow Depth Not available.
UV 0 out of 12
Pollen .30 out of 12
Air Quality Not available.
Flu Activity Not available.
METAR KGSO 230254Z 00000KT 6SM FU FEW070 03/M07 A3033 RMK AO2 SLP275 T00331067 51003

More Conditions Fewer Conditions

Pressure 30.35 in
Visibility 6.0 miles
Clouds Few 7000 ft
Windchill 33 °F
Dew Point 27 °F
Humidity 80%
Rainfall 0.00 in
Snow Depth Not available.
UV 0 out of 12
Pollen .30 out of 12
Air Quality Not available.
Flu Activity Not available.
METAR KGSO 230254Z 00000KT 6SM FU FEW070 03/M07 A3033 RMK AO2 SLP275 T00331067 51003

More Conditions Fewer Conditions

10-Day Weather Forecast

Almanac

Astronomy

Nov. 22, 2014 Rise Set
Actual Time
Civil Twilight
Nautical Twilight
Astronomical Twilight
Moon
Length of Visible Light
Length of Day
Tomorrow will be .
, % of the Moon is Illuminated

Today's Extremes

State Highs State Lows

Community

WunderPhotos

Upload Photos

1,772,990 photos uploaded!

WunderBlogs® & News

Nearby

Air Quality

  Air Quality AQ Index Pollutant
Not available.

Snow Depth

Station Depth Elevation

Earthquake Activity

City Distance Mag. Time & Date
Minimum magnitude displayed is 2.5.

Coastal Water Temperatures

Place Temperature

Nearby Weather Stations